createdAt,value
2023-03-12T00:02:11.728Z,5.20
2023-03-12T00:04:38.874Z,4.72
2023-03-12T00:07:06.812Z,4.15
2023-03-12T00:09:38.888Z,4.47
2023-03-12T00:12:06.945Z,4.97
2023-03-12T00:14:34.240Z,4.57
2023-03-12T00:17:01.321Z,4.65
2023-03-12T00:19:28.542Z,4.57
2023-03-12T00:21:55.583Z,3.88
2023-03-12T00:24:22.600Z,5.47
2023-03-12T00:26:49.585Z,4.30
2023-03-12T00:29:16.628Z,3.85
2023-03-12T00:31:43.758Z,3.63
2023-03-12T00:34:11.266Z,4.53
2023-03-12T00:36:38.456Z,6.18
2023-03-12T00:39:05.458Z,4.65
2023-03-12T00:41:32.441Z,4.20
2023-03-12T00:43:59.554Z,4.30
2023-03-12T00:46:27.082Z,4.50
2023-03-12T00:48:54.179Z,4.03
2023-03-12T00:51:21.269Z,4.78
2023-03-12T00:53:48.373Z,3.88
2023-03-12T00:56:15.998Z,5.45
2023-03-12T00:58:43.442Z,5.28
2023-03-12T01:01:11.312Z,4.80
2023-03-12T01:03:38.769Z,4.93
2023-03-12T01:06:06.608Z,4.38
2023-03-12T01:08:34.127Z,4.55
2023-03-12T01:11:01.230Z,5.13
2023-03-12T01:13:28.483Z,3.50
2023-03-12T01:15:55.877Z,4.22
2023-03-12T01:18:22.966Z,3.50
2023-03-12T01:20:50.021Z,3.63
2023-03-12T01:23:17.168Z,5.25
2023-03-12T01:25:44.176Z,5.00
2023-03-12T01:28:11.259Z,4.75
2023-03-12T01:30:38.572Z,4.60
2023-03-12T01:33:05.566Z,7.07
2023-03-12T01:35:37.228Z,5.95
2023-03-12T01:38:04.481Z,6.75
2023-03-12T01:40:34.927Z,8.63
2023-03-12T01:43:25.323Z,8.05
2023-03-12T01:46:11.065Z,8.70
2023-03-12T01:48:45.417Z,9.52
2023-03-12T01:51:16.191Z,8.88
2023-03-12T01:53:47.352Z,8.77
2023-03-12T01:56:17.419Z,8.55
2023-03-12T01:58:52.192Z,11.18
2023-03-12T02:01:20.384Z,11.23
2023-03-12T02:03:50.543Z,10.13
2023-03-12T02:06:23.633Z,8.13
2023-03-12T02:08:51.419Z,9.32
2023-03-12T02:11:18.408Z,10.07
2023-03-12T02:13:45.516Z,11.15
2023-03-12T02:16:13.511Z,11.88
2023-03-12T02:18:40.625Z,12.55
2023-03-12T02:21:19.877Z,13.63
2023-03-12T02:24:09.907Z,9.85
2023-03-12T02:26:39.335Z,13.85
2023-03-12T02:29:08.842Z,10.23
2023-03-12T02:31:43.172Z,11.93
2023-03-12T02:34:11.002Z,9.48
2023-03-12T02:36:38.140Z,12.82
2023-03-12T02:39:06.048Z,10.82
2023-03-12T02:41:38.124Z,12.20
2023-03-12T02:44:08.032Z,13.30
2023-03-12T02:46:46.229Z,9.45
2023-03-12T02:49:14.319Z,11.95
2023-03-12T02:51:43.895Z,11.23
2023-03-12T02:54:12.319Z,13.05
2023-03-12T02:56:40.275Z,12.65
2023-03-12T02:59:09.590Z,11.70
2023-03-12T03:01:41.218Z,11.35
2023-03-12T03:04:09.677Z,13.88
2023-03-12T03:06:39.453Z,11.45
2023-03-12T03:09:06.528Z,10.75
2023-03-12T03:11:33.666Z,12.05
2023-03-12T03:14:04.491Z,12.43
2023-03-12T03:16:32.058Z,12.57
2023-03-12T03:18:59.432Z,14.95
2023-03-12T03:21:26.863Z,10.98
2023-03-12T03:23:53.926Z,12.98
2023-03-12T03:26:23.583Z,10.90
2023-03-12T03:28:51.275Z,9.95
2023-03-12T03:31:18.694Z,8.82
2023-03-12T03:33:46.473Z,9.07
2023-03-12T03:36:15.074Z,13.10
2023-03-12T03:38:53.798Z,10.73
2023-03-12T03:41:21.641Z,12.55
2023-03-12T03:43:49.098Z,11.70
2023-03-12T03:46:19.181Z,9.48
2023-03-12T03:48:51.198Z,10.77
2023-03-12T03:51:18.404Z,9.82
2023-03-12T03:53:48.658Z,10.00
2023-03-12T03:56:16.475Z,11.38
2023-03-12T03:58:49.458Z,10.65
2023-03-12T04:01:19.029Z,13.95
2023-03-12T04:03:47.229Z,11.50
2023-03-12T04:06:14.268Z,12.70
2023-03-12T04:08:41.937Z,12.55
2023-03-12T04:11:17.086Z,10.38
2023-03-12T04:13:44.765Z,12.98
2023-03-12T04:16:14.622Z,14.43
2023-03-12T04:18:42.208Z,13.45
2023-03-12T04:21:11.358Z,11.57
2023-03-12T04:23:39.737Z,13.43
2023-03-12T04:26:08.456Z,17.15
2023-03-12T04:28:37.249Z,13.32
2023-03-12T04:31:08.061Z,10.88
2023-03-12T04:33:40.858Z,15.93
2023-03-12T04:36:09.679Z,15.45
2023-03-12T04:38:40.355Z,14.15
2023-03-12T04:41:11.380Z,14.75
2023-03-12T04:43:41.993Z,10.30
2023-03-12T04:46:09.591Z,11.77
2023-03-12T04:48:37.908Z,14.65
2023-03-12T04:51:06.651Z,10.80
2023-03-12T04:53:34.023Z,11.40
2023-03-12T04:56:02.538Z,15.35
2023-03-12T04:58:30.821Z,15.90
2023-03-12T05:00:58.331Z,12.27
2023-03-12T05:03:25.580Z,14.05
2023-03-12T05:05:52.875Z,14.07
2023-03-12T05:08:20.042Z,14.88
2023-03-12T05:10:47.265Z,12.68
2023-03-12T05:13:22.509Z,20.30
2023-03-12T05:15:56.519Z,15.98
2023-03-12T05:18:23.763Z,16.33
2023-03-12T05:21:02.172Z,14.77
2023-03-12T05:23:30.734Z,14.93
2023-03-12T05:25:58.748Z,14.65
2023-03-12T05:28:28.668Z,17.65
2023-03-12T05:31:00.201Z,14.82
2023-03-12T05:33:29.250Z,14.07
2023-03-12T05:35:58.861Z,14.00
2023-03-12T05:38:26.533Z,18.13
2023-03-12T05:40:55.536Z,15.43
2023-03-12T05:43:23.391Z,13.57
2023-03-12T05:45:51.671Z,14.00
2023-03-12T05:48:19.572Z,14.60
2023-03-12T05:50:46.689Z,17.30
2023-03-12T05:53:13.862Z,15.38
2023-03-12T05:55:41.920Z,17.17
2023-03-12T05:58:09.790Z,15.45
2023-03-12T06:00:39.042Z,16.00
2023-03-12T06:03:08.854Z,18.08
2023-03-12T06:05:37.160Z,17.77
2023-03-12T06:08:05.833Z,18.70
2023-03-12T06:10:33.028Z,17.35
2023-03-12T06:13:00.121Z,19.50
2023-03-12T06:15:27.176Z,17.90
2023-03-12T06:17:54.240Z,16.30
2023-03-12T06:20:21.463Z,16.85
2023-03-12T06:22:48.833Z,20.30
2023-03-12T06:25:15.952Z,22.30
2023-03-12T06:27:43.074Z,19.00
2023-03-12T06:30:10.704Z,22.05
2023-03-12T06:32:37.752Z,21.50
2023-03-12T06:35:05.995Z,23.15
2023-03-12T06:37:33.073Z,21.42
2023-03-12T06:40:00.122Z,23.23
2023-03-12T06:42:27.162Z,20.42
2023-03-12T06:44:54.157Z,22.05
2023-03-12T06:47:21.450Z,26.35
2023-03-12T06:49:48.471Z,26.98
2023-03-12T06:52:15.559Z,22.90
2023-03-12T06:54:42.677Z,22.45
2023-03-12T06:57:09.752Z,18.35
2023-03-12T06:59:37.118Z,22.30
2023-03-12T07:02:04.195Z,22.63
2023-03-12T07:04:31.246Z,21.55
2023-03-12T07:06:58.282Z,21.63
2023-03-12T07:09:25.417Z,22.88
2023-03-12T07:11:52.428Z,20.30
2023-03-12T07:14:21.389Z,23.02
2023-03-12T07:16:48.544Z,31.83
2023-03-12T07:19:15.657Z,25.83
2023-03-12T07:21:42.679Z,24.60
2023-03-12T07:24:10.088Z,27.63
2023-03-12T07:26:37.138Z,23.65
2023-03-12T07:29:05.307Z,23.40
2023-03-12T07:31:32.460Z,21.35
2023-03-12T07:33:59.581Z,18.35
2023-03-12T07:36:26.910Z,25.20
2023-03-12T07:38:54.034Z,21.52
2023-03-12T07:41:21.580Z,23.83
2023-03-12T07:43:48.636Z,24.05
2023-03-12T07:46:16.045Z,20.77
2023-03-12T07:48:44.407Z,22.63
2023-03-12T07:51:11.862Z,21.15
2023-03-12T07:53:38.884Z,22.55
2023-03-12T07:56:06.419Z,22.02
2023-03-12T07:58:36.597Z,18.58
2023-03-12T08:01:03.940Z,20.45
2023-03-12T08:03:31.160Z,17.20
2023-03-12T08:06:00.580Z,18.50
2023-03-12T08:08:28.875Z,18.48
2023-03-12T08:10:55.889Z,17.60
2023-03-12T08:13:24.508Z,16.45
2023-03-12T08:15:54.441Z,19.20
2023-03-12T08:18:22.225Z,19.25
2023-03-12T08:20:53.564Z,20.55
2023-03-12T08:23:21.500Z,19.88
2023-03-12T08:25:49.830Z,17.65
2023-03-12T08:28:18.329Z,18.33
2023-03-12T08:30:50.778Z,16.98
2023-03-12T08:33:18.112Z,21.70
2023-03-12T08:35:45.318Z,20.02
2023-03-12T08:38:12.368Z,20.17
2023-03-12T08:40:39.628Z,15.15
2023-03-12T08:43:07.742Z,15.18
2023-03-12T08:45:38.029Z,15.52
2023-03-12T08:48:06.560Z,17.77
2023-03-12T08:50:33.715Z,16.55
2023-03-12T08:53:01.381Z,16.80
2023-03-12T08:55:28.473Z,15.48
2023-03-12T08:57:56.587Z,14.50
2023-03-12T09:00:23.608Z,13.95
2023-03-12T09:02:52.295Z,13.88
2023-03-12T09:05:19.763Z,12.68
2023-03-12T09:07:46.882Z,12.38
2023-03-12T09:10:13.936Z,11.65
2023-03-12T09:12:41.021Z,11.98
2023-03-12T09:15:10.042Z,10.57
2023-03-12T09:17:37.776Z,9.68
2023-03-12T09:20:09.015Z,12.15
2023-03-12T09:22:37.336Z,12.38
2023-03-12T09:25:05.783Z,13.23
2023-03-12T09:27:37.388Z,10.32
2023-03-12T09:30:06.747Z,9.90
2023-03-12T09:32:34.159Z,10.07
2023-03-12T09:35:01.380Z,10.68
2023-03-12T09:37:28.619Z,9.32
2023-03-12T09:39:55.705Z,8.73
2023-03-12T09:42:33.090Z,7.82
2023-03-12T09:45:03.908Z,8.10
2023-03-12T09:47:33.828Z,6.72
2023-03-12T09:50:11.323Z,7.32
2023-03-12T09:52:51.528Z,6.18
2023-03-12T09:55:22.735Z,6.30
2023-03-12T09:57:51.613Z,5.93
2023-03-12T10:00:24.729Z,6.25
2023-03-12T10:02:55.461Z,5.75
2023-03-12T10:05:51.084Z,5.60
2023-03-12T10:08:39.847Z,5.30
2023-03-12T10:11:09.789Z,5.22
2023-03-12T10:13:42.665Z,4.50
2023-03-12T10:17:03.198Z,5.15
2023-03-12T10:22:19.793Z,4.30
2023-03-12T10:25:00.636Z,4.63
2023-03-12T10:27:30.498Z,4.80
2023-03-12T10:29:58.374Z,4.90
2023-03-12T10:32:37.740Z,6.10
2023-03-12T10:35:22.238Z,5.70
2023-03-12T10:37:54.290Z,5.95
2023-03-12T10:40:28.489Z,5.93
2023-03-12T10:42:56.018Z,5.75
2023-03-12T10:45:34.852Z,5.43
2023-03-12T10:48:18.512Z,5.80
2023-03-12T10:51:20.358Z,6.50
2023-03-12T10:53:50.166Z,5.57
2023-03-12T10:56:19.563Z,5.25
2023-03-12T10:58:53.165Z,5.90
2023-03-12T11:01:26.531Z,5.50
2023-03-12T11:04:09.769Z,5.70
2023-03-12T11:06:36.813Z,7.65
2023-03-12T11:09:16.639Z,5.95
2023-03-12T11:11:47.764Z,6.43
2023-03-12T11:14:20.082Z,6.30
2023-03-12T11:16:47.127Z,6.25
2023-03-12T11:19:26.573Z,6.03
2023-03-12T11:22:04.780Z,6.50
2023-03-12T11:24:32.050Z,5.32
2023-03-12T11:27:10.953Z,5.47
2023-03-12T11:29:47.323Z,5.78
2023-03-12T11:32:37.526Z,5.90
2023-03-12T11:35:10.909Z,5.47
2023-03-12T11:38:16.298Z,5.72
2023-03-12T11:41:07.592Z,5.30
2023-03-12T11:43:44.444Z,4.85
2023-03-12T11:46:36.339Z,5.00
2023-03-12T11:49:09.156Z,5.43
2023-03-12T11:51:54.722Z,5.45
2023-03-12T11:54:49.665Z,5.90
2023-03-12T11:57:33.914Z,4.97
2023-03-12T12:00:17.482Z,4.82
2023-03-12T12:03:12.555Z,4.25
2023-03-12T12:06:02.279Z,4.75
2023-03-12T12:09:10.533Z,3.95
2023-03-12T12:12:22.070Z,3.08
2023-03-12T12:15:28.154Z,2.50
2023-03-12T12:18:26.061Z,1.85
2023-03-12T12:21:11.654Z,1.60
2023-03-12T12:23:54.819Z,1.50
2023-03-12T12:26:36.878Z,1.60
2023-03-12T12:29:09.822Z,2.10
2023-03-12T12:31:48.938Z,1.23
2023-03-12T12:34:53.730Z,1.50
2023-03-12T12:37:54.864Z,1.10
2023-03-12T12:40:38.261Z,1.33
2023-03-12T12:43:35.543Z,1.40
2023-03-12T12:46:06.578Z,1.30
2023-03-12T12:48:48.911Z,1.33
2023-03-12T12:51:19.832Z,1.30
2023-03-12T12:54:02.985Z,1.40
2023-03-12T12:56:47.158Z,1.35
2023-03-12T12:59:32.844Z,1.50
2023-03-12T13:02:02.748Z,1.40
2023-03-12T13:04:37.891Z,1.52
2023-03-12T13:07:14.029Z,1.30
2023-03-12T13:09:47.181Z,1.40
2023-03-12T13:12:16.462Z,1.40
2023-03-12T13:14:45.148Z,1.48
2023-03-12T13:17:50.901Z,1.67
2023-03-12T13:20:21.087Z,1.60
2023-03-12T13:23:09.519Z,1.63
2023-03-12T13:25:59.118Z,1.50
2023-03-12T13:28:26.581Z,1.20
2023-03-12T13:30:54.517Z,1.60
2023-03-12T13:33:48.654Z,1.70
2023-03-12T13:36:15.727Z,1.55
2023-03-12T13:39:17.656Z,1.73
2023-03-12T13:41:55.077Z,1.30
2023-03-12T13:44:29.016Z,1.67
2023-03-12T13:47:03.556Z,1.60
2023-03-12T13:49:43.669Z,1.52
2023-03-12T13:52:19.551Z,1.88
2023-03-12T13:54:59.748Z,1.60
2023-03-12T13:57:38.767Z,1.77
2023-03-12T14:00:11.914Z,1.67
2023-03-12T14:02:49.214Z,1.75
2023-03-12T14:05:17.165Z,1.80
2023-03-12T14:07:50.129Z,1.80
2023-03-12T14:10:35.894Z,1.73
2023-03-12T14:13:21.807Z,1.60
2023-03-12T14:16:03.474Z,1.58
2023-03-12T14:18:34.600Z,1.80
2023-03-12T14:21:10.716Z,1.80
2023-03-12T14:23:41.021Z,1.80
2023-03-12T14:26:09.731Z,1.52
2023-03-12T14:28:41.925Z,1.98
2023-03-12T14:31:15.007Z,1.85
2023-03-12T14:33:57.102Z,1.60
2023-03-12T14:36:35.305Z,1.50
2023-03-12T14:39:20.864Z,1.90
2023-03-12T14:41:59.165Z,1.70
2023-03-12T14:44:28.836Z,1.90
2023-03-12T14:47:07.693Z,2.00
2023-03-12T14:49:41.097Z,2.00
2023-03-12T14:52:11.220Z,2.10
2023-03-12T14:54:39.861Z,1.75
2023-03-12T14:57:15.660Z,2.03
2023-03-12T14:59:53.349Z,1.67
2023-03-12T15:02:20.905Z,2.45
2023-03-12T15:04:50.129Z,2.35
2023-03-12T15:07:22.161Z,2.05
2023-03-12T15:09:52.268Z,2.33
2023-03-12T15:12:26.083Z,2.00
2023-03-12T15:15:03.531Z,2.03
2023-03-12T15:17:32.072Z,2.10
2023-03-12T15:20:00.487Z,1.70
2023-03-12T15:22:28.557Z,1.98
2023-03-12T15:24:55.688Z,2.10
2023-03-12T15:27:25.869Z,1.95
2023-03-12T15:29:53.138Z,1.98
2023-03-12T15:32:24.947Z,1.98
2023-03-12T15:34:53.997Z,2.10
2023-03-12T15:37:24.760Z,2.30
2023-03-12T15:39:53.450Z,1.85
2023-03-12T15:42:24.212Z,2.35
2023-03-12T15:45:03.377Z,2.20
2023-03-12T15:47:34.097Z,1.80
2023-03-12T15:50:04.716Z,2.47
2023-03-12T15:52:36.506Z,2.37
2023-03-12T15:55:12.333Z,2.53
2023-03-12T15:57:46.605Z,2.47
2023-03-12T16:00:18.469Z,2.60
2023-03-12T16:02:56.377Z,2.43
2023-03-12T16:05:27.391Z,2.47
2023-03-12T16:07:54.926Z,2.73
2023-03-12T16:10:25.509Z,2.53
2023-03-12T16:12:59.929Z,2.63
2023-03-12T16:15:32.705Z,3.27
2023-03-12T16:18:00.124Z,2.73
2023-03-12T16:20:27.716Z,3.10
2023-03-12T16:22:55.028Z,3.47
2023-03-12T16:25:23.280Z,3.10
2023-03-12T16:27:53.259Z,3.27
2023-03-12T16:30:28.540Z,3.23
2023-03-12T16:32:56.719Z,3.40
2023-03-12T16:35:23.937Z,3.70
2023-03-12T16:37:50.970Z,3.40
2023-03-12T16:40:30.843Z,3.77
2023-03-12T16:43:03.651Z,3.53
2023-03-12T16:45:33.966Z,3.53
2023-03-12T16:48:03.875Z,4.27
2023-03-12T16:50:31.297Z,3.90
2023-03-12T16:52:59.780Z,4.17
2023-03-12T16:55:45.151Z,3.90
2023-03-12T16:58:14.309Z,4.13
2023-03-12T17:00:41.650Z,4.13
2023-03-12T17:03:18.421Z,3.80
2023-03-12T17:05:46.106Z,3.97
2023-03-12T17:08:14.611Z,4.03
2023-03-12T17:10:41.880Z,4.27
2023-03-12T17:13:19.036Z,3.97
2023-03-12T17:15:46.513Z,3.77
2023-03-12T17:18:13.861Z,4.30
2023-03-12T17:20:41.180Z,3.77
2023-03-12T17:23:09.077Z,4.00
2023-03-12T17:25:38.840Z,4.00
2023-03-12T17:28:07.169Z,4.33
2023-03-12T17:30:35.238Z,5.37
2023-03-12T17:33:14.022Z,5.00
2023-03-12T17:35:41.759Z,4.80
2023-03-12T17:38:09.656Z,5.80
2023-03-12T17:40:41.507Z,4.77
2023-03-12T17:43:08.744Z,5.50
2023-03-12T17:45:37.179Z,5.50
2023-03-12T17:48:04.400Z,5.27
2023-03-12T17:50:32.146Z,5.50
2023-03-12T17:52:59.230Z,6.13
2023-03-12T17:55:26.294Z,5.53
2023-03-12T17:57:53.400Z,5.77
2023-03-12T18:00:22.160Z,5.10
2023-03-12T18:02:49.588Z,5.37
2023-03-12T18:05:16.771Z,4.97
2023-03-12T18:07:43.948Z,5.20
2023-03-12T18:10:11.730Z,4.87
2023-03-12T18:12:40.671Z,5.20
2023-03-12T18:15:09.674Z,4.47
2023-03-12T18:17:36.704Z,4.53
2023-03-12T18:20:16.720Z,4.83
2023-03-12T18:22:46.635Z,4.60
2023-03-12T18:25:13.739Z,4.37
2023-03-12T18:27:40.845Z,4.40
2023-03-12T18:30:11.615Z,4.57
2023-03-12T18:32:39.503Z,4.53
2023-03-12T18:35:08.428Z,5.17
2023-03-12T18:37:35.468Z,5.07
2023-03-12T18:40:02.490Z,4.07
2023-03-12T18:42:30.673Z,4.27
2023-03-12T18:44:57.733Z,4.10
2023-03-12T18:47:24.891Z,3.70
2023-03-12T18:49:55.187Z,4.00
2023-03-12T18:52:22.985Z,3.57
2023-03-12T18:54:50.057Z,3.57
2023-03-12T18:57:17.168Z,3.23
2023-03-12T18:59:46.171Z,3.40
2023-03-12T19:02:13.620Z,3.33
2023-03-12T19:04:40.747Z,3.67
2023-03-12T19:07:08.712Z,3.23
2023-03-12T19:09:35.805Z,3.23
2023-03-12T19:12:03.168Z,2.80
2023-03-12T19:14:30.900Z,3.10
2023-03-12T19:16:58.109Z,3.20
2023-03-12T19:19:25.155Z,2.97
2023-03-12T19:21:52.185Z,3.00
2023-03-12T19:24:19.210Z,3.00
2023-03-12T19:26:46.287Z,2.90
2023-03-12T19:29:15.307Z,2.70
2023-03-12T19:31:43.132Z,2.90
2023-03-12T19:34:10.163Z,2.80
2023-03-12T19:36:37.192Z,2.63
2023-03-12T19:39:11.967Z,2.67
2023-03-12T19:41:46.066Z,2.63
2023-03-12T19:44:13.116Z,2.73
2023-03-12T19:46:43.148Z,2.60
2023-03-12T19:49:10.361Z,2.80
2023-03-12T19:51:40.274Z,3.20
2023-03-12T19:54:08.099Z,2.80
2023-03-12T19:56:35.232Z,3.27
2023-03-12T19:59:03.474Z,3.13
2023-03-12T20:01:30.508Z,2.80
2023-03-12T20:03:57.604Z,2.70
2023-03-12T20:06:24.671Z,2.60
2023-03-12T20:08:51.720Z,2.73
2023-03-12T20:11:19.933Z,2.60
2023-03-12T20:13:46.920Z,3.10
2023-03-12T20:16:14.099Z,2.50
2023-03-12T20:18:41.193Z,2.67
2023-03-12T20:21:08.220Z,2.77
2023-03-12T20:23:35.324Z,2.80
2023-03-12T20:26:02.667Z,3.03
2023-03-12T20:28:29.736Z,3.20
2023-03-12T20:30:56.930Z,2.97
2023-03-12T20:33:24.027Z,3.00
2023-03-12T20:35:51.409Z,3.07
2023-03-12T20:38:18.494Z,2.43
2023-03-12T20:40:46.434Z,2.73
2023-03-12T20:43:13.474Z,3.00
2023-03-12T20:45:40.606Z,3.10
2023-03-12T20:48:07.786Z,3.30
2023-03-12T20:50:38.119Z,2.80
2023-03-12T20:53:05.198Z,3.40
2023-03-12T20:55:32.273Z,2.87
2023-03-12T20:57:59.469Z,3.10
2023-03-12T21:00:26.559Z,2.90
2023-03-12T21:02:53.648Z,3.10
2023-03-12T21:05:21.826Z,3.27
2023-03-12T21:07:50.332Z,2.90
2023-03-12T21:10:17.540Z,2.93
2023-03-12T21:12:44.637Z,3.10
2023-03-12T21:15:12.698Z,2.80
2023-03-12T21:17:40.962Z,2.67
2023-03-12T21:20:17.204Z,2.90
2023-03-12T21:22:46.765Z,2.90
2023-03-12T21:25:13.886Z,2.80
2023-03-12T21:27:50.270Z,2.20
2023-03-12T21:30:18.261Z,2.50
2023-03-12T21:32:45.403Z,2.53
2023-03-12T21:35:12.566Z,2.47
2023-03-12T21:37:39.946Z,2.30
2023-03-12T21:40:09.197Z,2.67
2023-03-12T21:42:36.278Z,2.50
2023-03-12T21:45:03.636Z,2.20
2023-03-12T21:47:30.997Z,2.30
2023-03-12T21:49:58.025Z,2.40
2023-03-12T21:52:25.117Z,2.30
2023-03-12T21:54:52.078Z,2.50
2023-03-12T21:57:19.161Z,2.30
2023-03-12T21:59:46.171Z,2.00
2023-03-12T22:02:14.619Z,2.23
2023-03-12T22:04:41.678Z,2.20
2023-03-12T22:07:08.870Z,2.37
2023-03-12T22:09:35.910Z,2.27
2023-03-12T22:12:03.579Z,2.30
2023-03-12T22:14:30.621Z,2.40
2023-03-12T22:16:57.666Z,2.10
2023-03-12T22:19:24.739Z,2.07
2023-03-12T22:21:51.704Z,1.80
2023-03-12T22:24:18.719Z,2.00
2023-03-12T22:26:46.736Z,2.10
2023-03-12T22:29:13.856Z,2.10
2023-03-12T22:31:40.973Z,2.30
2023-03-12T22:34:08.060Z,2.17
2023-03-12T22:36:35.157Z,2.30
2023-03-12T22:39:02.339Z,2.17
2023-03-12T22:41:30.228Z,2.37
2023-03-12T22:44:03.067Z,2.20
2023-03-12T22:46:30.354Z,1.87
2023-03-12T22:49:00.045Z,2.13
2023-03-12T22:51:29.084Z,2.20
2023-03-12T22:53:56.393Z,2.17
2023-03-12T22:56:23.508Z,2.43
2023-03-12T22:58:50.779Z,1.97
2023-03-12T23:01:20.785Z,2.30
2023-03-12T23:03:48.878Z,2.03
2023-03-12T23:06:21.893Z,2.00
2023-03-12T23:08:49.824Z,2.10
2023-03-12T23:11:17.054Z,2.00
2023-03-12T23:13:45.940Z,2.40
2023-03-12T23:16:20.895Z,2.10
2023-03-12T23:18:48.898Z,2.20
2023-03-12T23:21:18.612Z,2.37
2023-03-12T23:23:45.966Z,2.47
2023-03-12T23:26:18.895Z,2.10
2023-03-12T23:28:47.450Z,2.40
2023-03-12T23:31:16.282Z,2.40
2023-03-12T23:33:43.735Z,2.13
2023-03-12T23:36:16.952Z,2.10
2023-03-12T23:38:44.571Z,1.87
2023-03-12T23:41:13.062Z,1.90
2023-03-12T23:43:40.173Z,2.20
2023-03-12T23:46:09.011Z,2.20
2023-03-12T23:48:38.006Z,1.83
2023-03-12T23:51:22.606Z,1.77
2023-03-12T23:53:51.724Z,1.87
2023-03-12T23:56:23.030Z,2.03
2023-03-12T23:58:51.023Z,1.90
